Time;durP1;ratioP1;P1;durP2;ratioP2;P2;SDS_P1;SDS_P2;PMS_P1;PMS_P2;Temp;Humidity;BMP_temperature;BMP_pressure;BME280_temperature;BME280_humidity;BME280_pressure;Samples;Min_cycle;Max_cycle;Signal;HPM_P1;HPM_P2
2021/10/11 00:02:15;;;;;;;14.33;7.80;;;6.30;99.90;;;;;;5062144;28;20343;-73
2021/10/11 00:04:42;;;;;;;12.10;6.93;;;6.20;99.90;;;;;;5070389;28;20213;-73
2021/10/11 00:07:09;;;;;;;12.63;7.50;;;6.20;99.90;;;;;;5070975;28;20205;-74
2021/10/11 00:09:37;;;;;;;11.40;7.53;;;6.10;99.90;;;;;;5062499;28;20537;-73
2021/10/11 00:12:05;;;;;;;12.43;7.57;;;6.10;99.90;;;;;;5060284;28;20582;-73
2021/10/11 00:14:32;;;;;;;12.87;8.33;;;6.00;99.90;;;;;;5070358;28;20488;-74
2021/10/11 00:16:59;;;;;;;13.40;7.80;;;6.00;99.90;;;;;;5071097;28;20205;-73
2021/10/11 00:19:27;;;;;;;11.20;7.60;;;6.00;99.90;;;;;;5066898;28;20207;-73
2021/10/11 00:21:53;;;;;;;12.73;7.97;;;6.00;99.90;;;;;;5067896;28;20313;-73
2021/10/11 00:24:20;;;;;;;15.53;8.53;;;5.90;99.90;;;;;;5059315;28;20198;-73
2021/10/11 00:26:49;;;;;;;11.70;8.17;;;6.10;99.90;;;;;;5060698;28;20213;-73
2021/10/11 00:29:16;;;;;;;11.83;7.70;;;6.10;99.90;;;;;;5071349;28;20214;-73
2021/10/11 00:31:43;;;;;;;13.67;7.67;;;6.20;99.90;;;;;;5069272;28;20217;-73
2021/10/11 00:34:10;;;;;;;11.07;7.13;;;6.20;99.90;;;;;;5065794;28;20199;-73
2021/10/11 00:36:37;;;;;;;14.17;8.07;;;6.20;99.90;;;;;;5068909;28;20207;-73
2021/10/11 00:39:04;;;;;;;12.07;7.67;;;6.10;99.90;;;;;;5066252;28;20203;-73
2021/10/11 00:41:32;;;;;;;15.17;8.17;;;6.20;99.90;;;;;;5069844;28;20659;-73
2021/10/11 00:44:01;;;;;;;12.03;7.77;;;6.20;99.90;;;;;;5069758;28;20268;-73
2021/10/11 00:46:28;;;;;;;14.43;8.53;;;6.20;99.90;;;;;;5066271;28;20572;-73
2021/10/11 00:48:54;;;;;;;13.90;8.27;;;6.20;99.90;;;;;;5069811;28;20199;-73
2021/10/11 00:51:22;;;;;;;12.97;7.77;;;6.20;99.90;;;;;;5069409;28;20211;-73
2021/10/11 00:53:49;;;;;;;15.20;8.27;;;6.20;99.90;;;;;;5068186;28;20202;-73
2021/10/11 00:56:16;;;;;;;15.03;7.93;;;6.30;99.90;;;;;;5066793;28;20207;-73
2021/10/11 00:58:43;;;;;;;14.13;7.80;;;6.30;99.90;;;;;;5065758;28;20214;-73
2021/10/11 01:01:11;;;;;;;13.17;7.40;;;6.30;99.90;;;;;;5065989;28;20198;-73
2021/10/11 01:03:38;;;;;;;12.63;7.97;;;6.30;99.90;;;;;;5062803;28;20234;-73
2021/10/11 01:06:05;;;;;;;13.43;8.13;;;6.30;99.90;;;;;;5069597;28;20213;-73
2021/10/11 01:08:33;;;;;;;16.03;8.70;;;6.30;99.90;;;;;;5069508;28;20636;-73
2021/10/11 01:11:01;;;;;;;13.53;8.17;;;6.30;99.90;;;;;;5067703;28;20238;-74
2021/10/11 01:13:28;;;;;;;13.10;8.20;;;6.30;99.90;;;;;;5069768;28;20285;-73
2021/10/11 01:15:55;;;;;;;15.93;8.70;;;6.40;99.90;;;;;;5063062;28;20203;-73
2021/10/11 01:18:23;;;;;;;14.30;7.57;;;6.50;99.90;;;;;;5062684;28;20209;-73
2021/10/11 01:20:51;;;;;;;14.40;8.03;;;6.60;99.90;;;;;;5069672;28;20202;-73
2021/10/11 01:23:18;;;;;;;17.03;9.37;;;6.60;99.90;;;;;;5070203;28;20224;-74
2021/10/11 01:25:45;;;;;;;18.07;8.87;;;6.70;99.90;;;;;;5062685;28;20221;-73
2021/10/11 01:28:12;;;;;;;14.90;8.57;;;6.60;99.90;;;;;;5056994;28;20214;-74
2021/10/11 01:30:39;;;;;;;16.20;8.87;;;6.60;99.90;;;;;;5058027;28;20201;-73
2021/10/11 01:33:09;;;;;;;16.73;9.23;;;6.60;99.90;;;;;;5059310;28;20221;-73
2021/10/11 01:35:36;;;;;;;15.83;8.47;;;6.60;99.90;;;;;;5057967;28;20226;-74
2021/10/11 01:38:04;;;;;;;17.30;8.87;;;6.70;99.90;;;;;;5063911;28;20221;-73
2021/10/11 01:40:31;;;;;;;13.90;8.63;;;6.80;99.90;;;;;;5066670;28;20293;-73
2021/10/11 01:42:58;;;;;;;16.00;9.87;;;6.80;99.90;;;;;;5069436;28;20221;-73
2021/10/11 01:45:24;;;;;;;17.03;9.53;;;6.80;99.90;;;;;;5069427;28;20202;-73
2021/10/11 01:47:51;;;;;;;17.90;9.47;;;6.80;99.90;;;;;;5061673;28;20198;-73
2021/10/11 01:50:18;;;;;;;18.77;10.67;;;6.90;99.90;;;;;;5059858;28;20220;-73
2021/10/11 01:52:45;;;;;;;17.43;9.60;;;6.90;99.90;;;;;;5067411;28;20194;-74
2021/10/11 01:55:13;;;;;;;18.10;10.13;;;6.90;99.90;;;;;;5066937;28;20202;-73
2021/10/11 01:57:40;;;;;;;16.63;9.97;;;7.00;99.90;;;;;;5064640;28;20195;-74
2021/10/11 02:00:09;;;;;;;15.93;9.57;;;7.00;99.90;;;;;;5064922;28;20210;-73
2021/10/11 02:02:36;;;;;;;16.80;9.93;;;7.00;99.90;;;;;;5064340;28;20579;-73
2021/10/11 02:05:03;;;;;;;15.90;9.40;;;7.00;99.90;;;;;;5064785;28;20214;-73
2021/10/11 02:07:30;;;;;;;16.30;10.00;;;7.00;99.90;;;;;;5069016;28;21386;-68
2021/10/11 02:09:56;;;;;;;16.73;9.80;;;7.00;99.90;;;;;;5065242;28;20213;-67
2021/10/11 02:12:25;;;;;;;16.40;10.07;;;6.90;99.90;;;;;;5067955;28;20205;-67
2021/10/11 02:14:51;;;;;;;19.13;11.13;;;6.80;99.90;;;;;;5064721;28;20678;-67
2021/10/11 02:17:19;;;;;;;17.20;10.30;;;6.80;99.90;;;;;;5069808;28;20202;-67
2021/10/11 02:19:46;;;;;;;17.40;10.67;;;6.80;99.90;;;;;;5064297;28;20205;-67
2021/10/11 02:22:12;;;;;;;20.57;10.87;;;6.80;99.90;;;;;;5067442;28;20640;-67
2021/10/11 02:24:39;;;;;;;16.93;10.37;;;6.90;99.90;;;;;;5066671;28;20210;-67
2021/10/11 02:27:06;;;;;;;19.50;11.43;;;6.80;99.90;;;;;;5069599;28;20230;-67
2021/10/11 02:29:34;;;;;;;16.97;10.53;;;6.80;99.90;;;;;;5059223;28;20648;-67
2021/10/11 02:32:01;;;;;;;19.73;11.03;;;6.80;99.90;;;;;;5065734;28;20225;-67
2021/10/11 02:34:28;;;;;;;20.03;11.93;;;6.90;99.90;;;;;;5054989;28;20205;-67
2021/10/11 02:36:55;;;;;;;20.13;12.33;;;7.00;99.90;;;;;;5057067;28;20198;-68
2021/10/11 02:39:22;;;;;;;25.53;15.50;;;7.10;99.90;;;;;;5063925;28;20202;-67
2021/10/11 02:41:49;;;;;;;23.63;13.90;;;7.20;99.90;;;;;;5068481;28;20206;-67
2021/10/11 02:44:16;;;;;;;25.07;13.83;;;7.40;99.90;;;;;;5058532;28;20238;-67
2021/10/11 02:46:44;;;;;;;24.33;14.97;;;7.40;99.90;;;;;;5060567;28;20203;-67
2021/10/11 02:49:11;;;;;;;24.87;14.67;;;7.50;99.90;;;;;;5068710;28;20206;-68
2021/10/11 02:51:38;;;;;;;27.07;16.60;;;7.40;99.90;;;;;;5068318;28;20206;-67
2021/10/11 02:54:05;;;;;;;27.57;16.77;;;7.50;99.90;;;;;;5069252;28;20570;-67
2021/10/11 02:56:31;;;;;;;26.63;16.93;;;7.70;99.90;;;;;;5061987;28;20213;-67
2021/10/11 02:58:58;;;;;;;26.70;16.40;;;7.70;99.90;;;;;;5068141;28;20234;-67
2021/10/11 03:01:25;;;;;;;31.80;18.93;;;7.70;99.90;;;;;;5067821;28;20198;-67
2021/10/11 03:03:53;;;;;;;30.47;19.10;;;7.80;99.90;;;;;;5068490;28;20746;-67
2021/10/11 03:06:20;;;;;;;28.50;18.23;;;7.90;99.90;;;;;;5068006;28;20226;-68
2021/10/11 03:08:47;;;;;;;31.30;18.73;;;7.90;99.90;;;;;;5060021;28;20207;-68
2021/10/11 03:11:14;;;;;;;31.43;20.50;;;8.00;99.90;;;;;;5060849;28;20204;-68
2021/10/11 03:13:42;;;;;;;30.50;19.70;;;8.20;99.90;;;;;;5060076;28;20565;-68
2021/10/11 03:16:08;;;;;;;30.63;20.50;;;8.20;99.90;;;;;;5066392;28;20289;-68
2021/10/11 03:18:36;;;;;;;31.23;20.23;;;8.30;99.90;;;;;;5068935;28;20658;-68
2021/10/11 03:21:04;;;;;;;32.57;20.67;;;8.30;99.90;;;;;;5067161;28;20734;-68
2021/10/11 03:23:31;;;;;;;34.60;22.03;;;8.40;99.90;;;;;;5070993;28;20228;-68
2021/10/11 03:25:58;;;;;;;36.03;21.87;;;8.50;99.90;;;;;;5070266;28;20224;-68
2021/10/11 03:28:25;;;;;;;35.13;22.40;;;8.50;99.90;;;;;;5063440;28;20232;-68
2021/10/11 03:30:51;;;;;;;34.63;23.37;;;8.60;99.90;;;;;;5071032;28;20217;-68
2021/10/11 03:33:18;;;;;;;37.90;23.53;;;8.70;99.90;;;;;;5070428;28;20194;-68
2021/10/11 03:35:45;;;;;;;37.87;24.27;;;8.70;99.90;;;;;;5069558;28;20212;-68
2021/10/11 03:38:13;;;;;;;36.47;23.47;;;8.70;99.90;;;;;;5058485;28;20206;-68
2021/10/11 03:40:40;;;;;;;36.23;23.80;;;8.70;99.90;;;;;;5070176;28;20562;-68
2021/10/11 03:43:07;;;;;;;35.93;23.90;;;8.70;99.90;;;;;;5072799;28;20224;-68
2021/10/11 03:45:34;;;;;;;34.87;23.77;;;8.70;99.90;;;;;;5074216;28;20198;-68
2021/10/11 03:48:01;;;;;;;36.87;24.23;;;8.80;99.90;;;;;;5072708;28;20660;-68
2021/10/11 03:50:27;;;;;;;40.77;25.77;;;8.80;99.90;;;;;;5073090;28;20214;-68
2021/10/11 03:52:54;;;;;;;36.80;24.30;;;8.80;99.90;;;;;;5068231;28;20567;-68
2021/10/11 03:55:23;;;;;;;36.70;24.47;;;8.80;99.90;;;;;;5073583;28;20205;-68
2021/10/11 03:57:49;;;;;;;40.53;26.23;;;8.80;99.90;;;;;;5065750;28;20552;-68
2021/10/11 04:00:16;;;;;;;39.57;27.23;;;8.70;99.90;;;;;;5065126;28;20202;-68
2021/10/11 04:02:43;;;;;;;37.63;25.10;;;8.70;99.90;;;;;;5070519;28;20202;-68
2021/10/11 04:05:10;;;;;;;44.70;28.43;;;8.70;99.90;;;;;;5071215;28;20194;-68
2021/10/11 04:07:40;;;;;;;39.83;26.47;;;8.70;99.90;;;;;;5067915;28;20209;-68
2021/10/11 04:10:09;;;;;;;40.03;26.83;;;8.60;99.90;;;;;;5067967;28;20678;-68
2021/10/11 04:12:38;;;;;;;40.90;26.33;;;8.60;99.90;;;;;;5070014;28;20205;-68
2021/10/11 04:15:07;;;;;;;43.73;28.67;;;8.60;99.90;;;;;;5072477;28;20285;-68
2021/10/11 04:17:37;;;;;;;40.03;26.67;;;8.60;99.90;;;;;;5069315;28;20202;-68
2021/10/11 04:20:06;;;;;;;40.60;27.97;;;8.60;99.90;;;;;;5067161;28;20206;-68
2021/10/11 04:22:33;;;;;;;43.87;29.07;;;8.60;99.90;;;;;;5067384;28;20207;-68
2021/10/11 04:25:00;;;;;;;43.00;28.57;;;8.60;99.90;;;;;;5062096;28;20314;-68
2021/10/11 04:27:26;;;;;;;46.07;30.73;;;8.60;99.90;;;;;;5068734;28;20675;-68
2021/10/11 04:29:55;;;;;;;50.67;30.40;;;8.60;99.90;;;;;;5059628;28;20202;-68
2021/10/11 04:32:21;;;;;;;43.07;29.00;;;8.60;99.90;;;;;;5064429;28;20285;-68
2021/10/11 04:34:48;;;;;;;45.57;29.87;;;8.60;99.90;;;;;;5065185;28;20210;-68
2021/10/11 04:37:15;;;;;;;45.63;29.10;;;8.60;99.90;;;;;;5070841;28;20199;-68
2021/10/11 04:39:42;;;;;;;44.63;29.40;;;8.60;99.90;;;;;;5057406;28;20206;-68
2021/10/11 04:42:09;;;;;;;44.23;29.70;;;8.60;99.90;;;;;;5069459;28;20210;-68
2021/10/11 04:44:35;;;;;;;44.07;29.77;;;8.60;99.90;;;;;;5070277;28;20226;-68
2021/10/11 04:47:04;;;;;;;45.57;31.10;;;8.60;99.90;;;;;;5071471;28;20198;-68
2021/10/11 04:49:30;;;;;;;46.80;30.73;;;8.60;99.90;;;;;;5069120;28;20300;-68
2021/10/11 04:51:57;;;;;;;50.93;32.13;;;8.70;99.90;;;;;;5069062;28;20213;-68
2021/10/11 04:54:24;;;;;;;46.93;31.33;;;8.70;99.90;;;;;;5071715;28;20519;-68
2021/10/11 04:56:51;;;;;;;49.17;31.97;;;8.70;99.90;;;;;;5070343;28;20198;-68
2021/10/11 04:59:18;;;;;;;47.67;33.33;;;8.70;99.90;;;;;;5069702;28;20565;-68
2021/10/11 05:01:44;;;;;;;48.33;33.17;;;8.70;99.90;;;;;;5071191;28;20222;-68
2021/10/11 05:04:13;;;;;;;56.17;37.50;;;8.70;99.90;;;;;;5071389;28;20233;-68
2021/10/11 05:06:39;;;;;;;48.27;33.40;;;8.70;99.90;;;;;;5067720;28;20566;-68
2021/10/11 05:09:06;;;;;;;46.60;30.97;;;8.80;99.90;;;;;;5064376;28;20205;-68
2021/10/11 05:11:33;;;;;;;49.83;32.97;;;8.80;99.90;;;;;;5063881;28;20634;-68
2021/10/11 05:14:00;;;;;;;47.47;30.80;;;8.80;99.90;;;;;;5074988;28;20289;-68
2021/10/11 05:16:27;;;;;;;53.13;32.97;;;8.80;99.90;;;;;;5072571;28;20659;-68
2021/10/11 05:18:54;;;;;;;47.10;30.40;;;8.90;99.90;;;;;;5071717;28;20214;-68
2021/10/11 05:21:23;;;;;;;47.23;31.60;;;8.90;99.90;;;;;;5066726;28;20202;-68
2021/10/11 05:23:50;;;;;;;48.50;30.77;;;8.90;99.90;;;;;;5071166;28;20301;-68
2021/10/11 05:26:17;;;;;;;48.50;32.43;;;8.90;99.90;;;;;;5072190;28;20275;-68
2021/10/11 05:28:43;;;;;;;46.37;30.23;;;8.90;99.90;;;;;;5071833;28;20217;-68
2021/10/11 05:31:12;;;;;;;46.77;29.90;;;9.00;99.90;;;;;;5072647;28;20672;-68
2021/10/11 05:33:38;;;;;;;47.73;30.97;;;9.00;99.90;;;;;;5072094;28;20198;-74
2021/10/11 05:36:06;;;;;;;47.13;32.17;;;9.00;99.90;;;;;;5071323;28;20202;-74
2021/10/11 05:38:34;;;;;;;44.93;30.17;;;9.00;99.90;;;;;;5073857;28;20206;-74
2021/10/11 05:41:02;;;;;;;45.07;30.03;;;9.00;99.90;;;;;;5068444;28;20256;-74
2021/10/11 05:43:29;;;;;;;43.77;28.83;;;9.10;99.90;;;;;;5070342;28;20570;-74
2021/10/11 05:45:56;;;;;;;43.67;30.07;;;9.10;99.90;;;;;;5071233;28;20212;-74
2021/10/11 05:48:22;;;;;;;44.77;30.10;;;9.10;99.90;;;;;;5072404;28;20202;-74
2021/10/11 05:50:49;;;;;;;45.83;29.90;;;9.10;99.90;;;;;;5067370;28;20423;-74
2021/10/11 05:53:16;;;;;;;40.87;27.50;;;9.10;99.90;;;;;;5076512;28;20199;-74
2021/10/11 05:55:44;;;;;;;44.77;29.77;;;9.20;99.90;;;;;;5071755;28;20198;-74
2021/10/11 05:58:11;;;;;;;42.60;27.80;;;9.20;99.90;;;;;;5079960;28;20497;-74
2021/10/11 06:00:38;;;;;;;44.50;29.00;;;9.20;99.90;;;;;;5073155;28;20198;-74
2021/10/11 06:03:05;;;;;;;47.10;29.13;;;9.20;99.90;;;;;;5070858;28;20206;-74
2021/10/11 06:05:32;;;;;;;44.83;29.10;;;9.20;99.90;;;;;;5069091;28;20214;-74
2021/10/11 06:07:59;;;;;;;45.63;30.23;;;9.30;99.90;;;;;;5072199;28;20197;-74
2021/10/11 06:10:26;;;;;;;44.93;29.67;;;9.30;99.90;;;;;;5066558;28;20202;-74
2021/10/11 06:12:54;;;;;;;50.00;32.03;;;9.30;99.90;;;;;;5073811;28;20216;-74
2021/10/11 06:15:21;;;;;;;45.37;29.77;;;9.30;99.90;;;;;;5073555;28;20637;-74
2021/10/11 06:17:48;;;;;;;43.63;29.70;;;9.30;99.90;;;;;;5076196;28;20217;-74
2021/10/11 06:20:15;;;;;;;47.57;31.63;;;9.30;99.90;;;;;;5070001;28;20210;-75
2021/10/11 06:22:42;;;;;;;42.13;28.80;;;9.30;99.90;;;;;;5071621;28;20548;-74
2021/10/11 06:25:09;;;;;;;41.33;28.30;;;9.30;99.90;;;;;;5072462;28;20218;-74
2021/10/11 06:27:37;;;;;;;42.70;29.40;;;9.40;99.90;;;;;;5072865;28;20204;-74
2021/10/11 06:30:07;;;;;;;44.13;29.60;;;9.40;99.90;;;;;;5072847;28;20554;-74
2021/10/11 06:32:34;;;;;;;45.13;30.80;;;9.40;99.90;;;;;;5070803;28;20206;-74
2021/10/11 06:35:01;;;;;;;45.23;30.43;;;9.40;99.90;;;;;;5072852;28;20213;-74
2021/10/11 06:37:27;;;;;;;43.10;28.73;;;9.40;99.90;;;;;;5073141;28;20220;-74
2021/10/11 06:39:54;;;;;;;44.33;30.27;;;9.50;99.90;;;;;;5074260;28;20202;-74
2021/10/11 06:42:21;;;;;;;48.53;30.23;;;9.50;99.90;;;;;;5070889;28;20201;-74
2021/10/11 06:44:48;;;;;;;44.90;28.77;;;9.50;99.90;;;;;;5067659;28;20229;-74
2021/10/11 06:47:16;;;;;;;47.53;31.10;;;9.50;99.90;;;;;;5069838;28;20668;-74
2021/10/11 06:49:45;;;;;;;47.77;31.37;;;9.50;99.90;;;;;;5071205;28;20228;-74
2021/10/11 06:52:13;;;;;;;47.00;28.83;;;9.50;99.90;;;;;;5072993;28;20667;-74
2021/10/11 06:54:39;;;;;;;46.83;29.07;;;9.60;99.90;;;;;;5075121;28;20212;-74
2021/10/11 06:57:07;;;;;;;43.63;29.00;;;9.60;99.90;;;;;;5074679;28;20656;-74
2021/10/11 06:59:34;;;;;;;49.00;33.10;;;9.70;99.90;;;;;;5063787;28;20657;-74
2021/10/11 07:02:01;;;;;;;52.33;31.33;;;9.70;99.90;;;;;;5069844;28;20206;-74
2021/10/11 07:04:29;;;;;;;47.17;28.90;;;9.70;99.90;;;;;;5073571;28;20222;-74
2021/10/11 07:06:56;;;;;;;44.07;28.70;;;9.70;99.90;;;;;;5072335;28;20206;-73
2021/10/11 07:09:23;;;;;;;45.40;28.60;;;9.80;99.90;;;;;;5071158;28;20202;-74
2021/10/11 07:11:50;;;;;;;45.23;29.57;;;9.80;99.90;;;;;;5074339;28;20208;-73
2021/10/11 07:14:18;;;;;;;43.93;28.00;;;9.90;99.90;;;;;;5067237;28;20198;-74
2021/10/11 07:16:45;;;;;;;42.83;27.83;;;9.90;99.90;;;;;;5074968;28;20272;-74
2021/10/11 07:19:13;;;;;;;45.57;28.90;;;10.00;99.90;;;;;;5067943;28;20297;-74
2021/10/11 07:21:41;;;;;;;42.47;27.70;;;10.10;99.90;;;;;;5071440;28;20203;-74
2021/10/11 07:24:11;;;;;;;44.37;28.87;;;10.10;99.90;;;;;;5072112;28;20222;-74
2021/10/11 07:26:38;;;;;;;41.90;27.47;;;10.10;99.90;;;;;;5072368;28;20661;-74
2021/10/11 07:29:05;;;;;;;42.67;28.47;;;10.20;99.90;;;;;;5066972;28;20207;-73
2021/10/11 07:31:32;;;;;;;44.07;27.90;;;10.20;99.90;;;;;;5073001;28;20194;-74
2021/10/11 07:33:59;;;;;;;47.10;27.70;;;10.20;99.90;;;;;;5076265;28;20213;-74
2021/10/11 07:36:26;;;;;;;42.97;28.10;;;10.30;99.90;;;;;;5069903;28;20202;-73
2021/10/11 07:38:54;;;;;;;41.57;26.70;;;10.30;99.90;;;;;;5066311;28;20230;-74
2021/10/11 07:41:21;;;;;;;40.20;26.23;;;10.30;99.90;;;;;;5069946;28;20198;-74
2021/10/11 07:43:48;;;;;;;42.77;27.37;;;10.40;99.90;;;;;;5073222;28;20206;-73
2021/10/11 07:46:15;;;;;;;42.80;28.53;;;10.40;99.90;;;;;;5070148;28;20229;-74
2021/10/11 07:48:42;;;;;;;41.17;27.57;;;10.50;99.90;;;;;;5071012;28;20202;-74
2021/10/11 07:51:09;;;;;;;38.13;25.73;;;10.50;99.90;;;;;;5071135;28;20579;-73
2021/10/11 07:53:36;;;;;;;39.70;26.33;;;10.60;99.90;;;;;;5066053;28;20206;-73
2021/10/11 07:56:04;;;;;;;47.67;29.37;;;10.60;99.90;;;;;;5063458;28;20423;-73
2021/10/11 07:58:31;;;;;;;39.10;26.47;;;10.70;99.90;;;;;;5070208;28;20210;-73
2021/10/11 08:00:58;;;;;;;39.43;25.57;;;10.70;99.90;;;;;;5069684;28;20213;-74
2021/10/11 08:03:26;;;;;;;41.50;25.37;;;10.80;99.90;;;;;;5068721;28;20219;-73
2021/10/11 08:05:53;;;;;;;39.67;24.80;;;10.80;99.90;;;;;;5067169;28;20226;-73
2021/10/11 08:08:19;;;;;;;40.00;25.93;;;10.90;99.90;;;;;;5073517;28;20221;-73
2021/10/11 08:10:46;;;;;;;37.40;24.20;;;10.90;99.90;;;;;;5074426;28;20209;-73
2021/10/11 08:13:15;;;;;;;36.23;23.83;;;11.00;99.90;;;;;;5067698;28;20210;-73
2021/10/11 08:15:42;;;;;;;39.03;24.93;;;11.00;99.90;;;;;;5067953;28;20875;-74
2021/10/11 08:18:11;;;;;;;36.73;24.53;;;11.10;99.90;;;;;;5072117;28;20203;-74
2021/10/11 08:20:38;;;;;;;38.60;26.13;;;11.10;99.90;;;;;;5068619;28;20202;-74
2021/10/11 08:23:05;;;;;;;37.80;24.33;;;11.10;99.90;;;;;;5071004;28;20218;-73
2021/10/11 08:25:32;;;;;;;41.13;25.43;;;11.20;99.90;;;;;;5067682;28;20703;-73
2021/10/11 08:27:59;;;;;;;39.47;24.53;;;11.20;99.90;;;;;;5063065;28;20552;-73
2021/10/11 08:30:27;;;;;;;36.03;22.30;;;11.20;99.90;;;;;;5074008;28;20207;-73
2021/10/11 08:32:54;;;;;;;37.07;23.13;;;11.30;99.90;;;;;;5069739;28;20229;-73
2021/10/11 08:35:21;;;;;;;37.93;22.30;;;11.30;99.90;;;;;;5066449;28;20210;-73
2021/10/11 08:37:50;;;;;;;35.63;23.23;;;11.40;99.90;;;;;;5070689;28;20210;-73
2021/10/11 08:40:17;;;;;;;37.70;22.77;;;11.30;99.90;;;;;;5065047;28;20198;-73
2021/10/11 08:42:45;;;;;;;34.50;22.77;;;11.40;99.90;;;;;;5073531;28;20213;-73
2021/10/11 08:45:12;;;;;;;34.03;21.83;;;11.40;99.90;;;;;;5064836;28;20317;-73
2021/10/11 08:47:41;;;;;;;33.83;21.80;;;11.40;99.90;;;;;;5069649;28;20199;-73
2021/10/11 08:50:11;;;;;;;36.13;22.57;;;11.50;99.90;;;;;;5064326;28;20217;-73
2021/10/11 08:52:39;;;;;;;37.97;23.27;;;11.60;99.90;;;;;;5068514;28;20629;-74
2021/10/11 08:55:07;;;;;;;33.93;20.80;;;11.70;99.90;;;;;;5068252;28;20194;-74
2021/10/11 08:57:35;;;;;;;35.07;21.57;;;11.60;99.90;;;;;;5067895;28;20202;-67
2021/10/11 09:00:11;;;;;;;31.90;20.17;;;11.70;99.90;;;;;;5063674;28;20207;-67
2021/10/11 09:02:50;;;;;;;32.30;21.30;;;11.80;99.90;;;;;;5069207;28;20679;-67
2021/10/11 09:05:23;;;;;;;34.10;20.70;;;11.70;99.90;;;;;;5071746;28;20225;-68
2021/10/11 09:07:58;;;;;;;34.97;20.93;;;11.70;99.90;;;;;;5069327;28;20781;-68
2021/10/11 09:10:25;;;;;;;33.23;19.73;;;11.80;99.90;;;;;;5072768;28;20218;-68
2021/10/11 09:12:52;;;;;;;30.67;19.40;;;11.70;99.90;;;;;;5067620;28;20722;-67
2021/10/11 09:15:19;;;;;;;31.70;20.00;;;11.70;99.90;;;;;;5075111;28;20209;-68
2021/10/11 09:17:51;;;;;;;31.83;20.10;;;11.80;99.90;;;;;;5071974;28;20216;-68
2021/10/11 09:20:21;;;;;;;33.23;19.77;;;11.90;99.90;;;;;;5066961;28;20612;-68
2021/10/11 09:22:49;;;;;;;40.20;19.37;;;12.00;99.90;;;;;;5071981;28;20213;-68
2021/10/11 09:25:18;;;;;;;31.80;20.43;;;12.10;99.90;;;;;;5072353;28;20222;-68
2021/10/11 09:27:49;;;;;;;28.07;18.13;;;12.30;99.90;;;;;;5067201;28;20233;-68
2021/10/11 09:30:18;;;;;;;33.00;18.17;;;12.60;99.90;;;;;;5066429;28;20210;-68
2021/10/11 09:32:46;;;;;;;28.73;17.00;;;13.00;99.90;;;;;;5064575;28;20206;-68
2021/10/11 09:35:15;;;;;;;19.27;10.53;;;13.40;99.90;;;;;;5067359;28;20574;-68
2021/10/11 09:37:47;;;;;;;14.63;7.03;;;13.40;99.90;;;;;;5063469;28;20672;-68
2021/10/11 09:40:14;;;;;;;17.60;7.03;;;13.40;99.90;;;;;;5064296;28;20218;-68
2021/10/11 09:42:41;;;;;;;14.80;7.83;;;13.40;99.90;;;;;;5063184;28;20660;-68
2021/10/11 09:45:08;;;;;;;17.17;7.33;;;13.50;99.90;;;;;;5067100;28;20214;-68
2021/10/11 09:47:37;;;;;;;12.53;6.60;;;13.60;99.90;;;;;;5065342;28;20623;-68
2021/10/11 09:50:07;;;;;;;13.67;6.23;;;14.00;99.90;;;;;;5065961;28;20216;-68
2021/10/11 09:52:34;;;;;;;10.93;5.53;;;14.30;99.90;;;;;;5061259;28;20203;-68
2021/10/11 09:55:02;;;;;;;14.13;5.53;;;14.70;99.90;;;;;;5065090;28;20241;-68
2021/10/11 09:57:30;;;;;;;9.47;4.90;;;14.80;99.90;;;;;;5070060;28;20674;-68
2021/10/11 10:00:00;;;;;;;14.50;4.90;;;14.70;99.90;;;;;;5059939;28;20216;-68
2021/10/11 10:02:28;;;;;;;10.17;5.10;;;14.80;99.90;;;;;;5065590;28;20687;-68
2021/10/11 10:04:59;;;;;;;13.73;4.93;;;15.20;99.90;;;;;;5064155;28;20698;-68
2021/10/11 10:07:30;;;;;;;11.17;3.70;;;14.90;99.90;;;;;;5068604;28;20209;-68
2021/10/11 10:09:59;;;;;;;10.40;4.03;;;15.00;99.90;;;;;;5063703;28;20230;-68
2021/10/11 10:12:26;;;;;;;9.10;3.87;;;15.10;99.90;;;;;;5064970;28;20207;-68
2021/10/11 10:15:01;;;;;;;12.20;4.00;;;15.10;99.90;;;;;;5061400;28;20657;-68
2021/10/11 10:17:32;;;;;;;11.20;4.30;;;15.40;99.90;;;;;;5062171;28;20202;-68
2021/10/11 10:20:12;;;;;;;16.23;4.47;;;15.50;99.90;;;;;;5060952;28;20210;-67
2021/10/11 10:22:51;;;;;;;12.77;4.77;;;15.00;99.90;;;;;;5067605;28;20212;-68
2021/10/11 10:25:18;;;;;;;13.30;4.93;;;15.00;99.90;;;;;;5063357;28;20594;-68
2021/10/11 10:27:47;;;;;;;11.93;4.03;;;14.90;99.90;;;;;;5064833;28;20214;-68
2021/10/11 10:30:17;;;;;;;11.53;5.27;;;14.70;99.90;;;;;;5066558;28;20421;-69
2021/10/11 10:32:59;;;;;;;15.60;5.33;;;14.70;99.90;;;;;;5055452;28;20213;-68
2021/10/11 10:35:27;;;;;;;10.73;3.83;;;14.70;99.90;;;;;;5055971;28;20730;-68
2021/10/11 10:37:56;;;;;;;7.17;2.70;;;14.80;99.90;;;;;;5056593;28;20211;-68
2021/10/11 10:40:27;;;;;;;9.17;2.83;;;14.90;99.90;;;;;;5066537;28;20217;-67
2021/10/11 10:43:05;;;;;;;8.00;3.53;;;14.80;99.90;;;;;;5068840;28;20221;-68
2021/10/11 10:45:35;;;;;;;9.77;2.67;;;14.70;99.90;;;;;;5061165;28;20225;-68
2021/10/11 10:48:01;;;;;;;9.40;2.47;;;14.70;99.90;;;;;;5064591;28;20210;-68
2021/10/11 10:50:29;;;;;;;9.03;2.37;;;15.10;99.90;;;;;;5057684;28;20202;-68
2021/10/11 10:53:00;;;;;;;4.87;2.57;;;15.40;99.90;;;;;;5062004;28;20210;-68
2021/10/11 10:55:27;;;;;;;7.60;2.30;;;15.40;99.90;;;;;;5071001;28;20585;-68
2021/10/11 10:57:59;;;;;;;9.53;2.60;;;15.40;99.90;;;;;;5069421;28;20213;-69
2021/10/11 11:00:25;;;;;;;4.30;2.37;;;15.30;99.90;;;;;;5063760;28;20206;-69
2021/10/11 11:02:54;;;;;;;8.53;2.40;;;15.40;99.90;;;;;;5070251;28;20216;-69
2021/10/11 11:05:23;;;;;;;5.67;2.30;;;15.50;99.90;;;;;;5066135;28;20658;-68
2021/10/11 11:07:53;;;;;;;8.40;2.20;;;15.70;99.90;;;;;;5063548;28;20221;-68
2021/10/11 11:10:23;;;;;;;7.83;2.47;;;15.90;99.90;;;;;;5059904;28;20214;-69
2021/10/11 11:12:54;;;;;;;7.27;2.57;;;16.00;99.90;;;;;;5064654;28;20687;-68
2021/10/11 11:15:28;;;;;;;9.27;2.22;;;15.90;99.90;;;;;;5065490;28;20202;-68
2021/10/11 11:17:57;;;;;;;7.22;2.30;;;16.00;99.90;;;;;;5062085;28;20202;-68
2021/10/11 11:20:26;;;;;;;10.70;2.50;;;16.10;99.90;;;;;;5062589;28;20206;-68
2021/10/11 11:22:55;;;;;;;8.88;2.63;;;16.10;99.90;;;;;;5068384;28;20679;-68
2021/10/11 11:25:28;;;;;;;10.70;2.20;;;16.70;99.90;;;;;;5069622;28;20225;-69
2021/10/11 11:27:57;;;;;;;11.90;3.50;;;16.90;99.90;;;;;;5069685;28;20214;-68
2021/10/11 11:30:25;;;;;;;10.80;3.15;;;16.90;99.90;;;;;;5064310;28;20206;-68
2021/10/11 11:32:53;;;;;;;8.20;3.30;;;16.60;99.90;;;;;;5061532;28;20206;-68
2021/10/11 11:35:23;;;;;;;9.48;3.05;;;15.90;99.90;;;;;;5068176;28;20861;-68
2021/10/11 11:37:52;;;;;;;5.25;2.10;;;15.70;99.90;;;;;;5064732;28;20198;-68
2021/10/11 11:40:20;;;;;;;8.57;1.97;;;15.70;99.90;;;;;;5055407;28;20583;-69
2021/10/11 11:42:49;;;;;;;8.05;2.17;;;15.70;99.90;;;;;;5068683;28;20635;-69
2021/10/11 11:45:17;;;;;;;7.22;2.10;;;16.20;99.90;;;;;;5067543;28;20667;-69
2021/10/11 11:47:44;;;;;;;8.63;1.73;;;16.50;99.90;;;;;;5069646;28;20559;-68
2021/10/11 11:50:22;;;;;;;9.70;2.43;;;16.80;99.90;;;;;;5069301;28;20597;-69
2021/10/11 11:52:58;;;;;;;8.02;1.73;;;16.80;99.90;;;;;;5068291;28;20207;-69
2021/10/11 11:55:25;;;;;;;6.22;2.35;;;16.60;99.90;;;;;;5071834;28;20214;-69
2021/10/11 11:57:54;;;;;;;5.50;1.70;;;16.60;99.90;;;;;;5070761;28;20214;-69
2021/10/11 12:00:23;;;;;;;6.13;2.05;;;16.90;99.90;;;;;;5064599;28;20221;-69
2021/10/11 12:02:51;;;;;;;6.85;1.80;;;17.40;99.90;;;;;;5064764;28;20226;-69
2021/10/11 12:05:19;;;;;;;8.07;2.30;;;17.40;99.90;;;;;;5067713;28;20213;-69
2021/10/11 12:07:47;;;;;;;7.55;1.90;;;17.60;99.90;;;;;;5066403;28;20240;-69
2021/10/11 12:10:20;;;;;;;5.57;1.50;;;17.70;99.90;;;;;;5063420;28;20206;-69
2021/10/11 12:12:47;;;;;;;5.28;1.75;;;17.90;99.90;;;;;;5057263;28;20206;-69
2021/10/11 12:15:20;;;;;;;7.53;1.63;;;18.10;99.90;;;;;;5068453;28;20208;-69
2021/10/11 12:17:47;;;;;;;8.10;1.70;;;17.60;99.90;;;;;;5066217;28;20209;-75
2021/10/11 12:20:15;;;;;;;8.13;1.60;;;17.80;99.90;;;;;;5062831;28;20218;-75
2021/10/11 12:22:43;;;;;;;5.28;1.42;;;17.90;99.90;;;;;;5060362;28;20209;-75
2021/10/11 12:25:12;;;;;;;10.38;1.60;;;17.40;99.90;;;;;;5068586;28;20668;-75
2021/10/11 12:27:39;;;;;;;6.45;1.40;;;16.90;99.90;;;;;;5066375;28;20219;-74
2021/10/11 12:30:10;;;;;;;6.85;1.42;;;16.60;99.90;;;;;;5068989;28;20213;-75
2021/10/11 12:32:38;;;;;;;7.88;1.92;;;16.30;99.90;;;;;;5070588;28;20202;-75
2021/10/11 12:35:08;;;;;;;3.95;1.25;;;16.30;99.90;;;;;;5069637;28;20210;-75
2021/10/11 12:37:40;;;;;;;9.55;1.70;;;16.20;99.90;;;;;;5072738;28;20277;-75
2021/10/11 12:40:08;;;;;;;5.25;2.00;;;16.10;99.90;;;;;;5071769;28;20214;-75
2021/10/11 12:42:43;;;;;;;7.47;2.08;;;15.70;99.90;;;;;;5068579;28;20217;-76